createdAt,value
2023-03-27T00:02:06.289Z,98677.25
2023-03-27T00:07:07.806Z,98659.09
2023-03-27T00:12:09.216Z,98656.84
2023-03-27T00:17:11.040Z,98668.78
2023-03-27T00:22:12.914Z,98650.06
2023-03-27T00:27:14.484Z,98641.94
2023-03-27T00:32:16.180Z,98640.13
2023-03-27T00:37:18.053Z,98643.00
2023-03-27T00:42:22.878Z,98639.75
2023-03-27T00:47:33.919Z,98644.44
2023-03-27T00:52:37.140Z,98642.66
2023-03-27T00:57:38.643Z,98645.56
2023-03-27T01:02:46.368Z,98639.88
2023-03-27T01:08:00.000Z,98643.28
2023-03-27T01:13:24.395Z,98630.53
2023-03-27T01:18:47.066Z,98634.72
2023-03-27T01:24:38.482Z,98626.56
2023-03-27T01:29:39.858Z,98619.47
2023-03-27T01:35:03.711Z,98617.09
2023-03-27T01:40:18.011Z,98624.34
2023-03-27T01:45:41.875Z,98630.53
2023-03-27T01:50:49.881Z,98620.25
2023-03-27T01:55:58.396Z,98612.09
2023-03-27T02:01:01.783Z,98616.34
2023-03-27T02:06:07.940Z,98618.28
2023-03-27T02:11:09.607Z,98615.50
2023-03-27T02:16:17.238Z,98617.06
2023-03-27T02:21:18.813Z,98619.34
2023-03-27T02:26:20.316Z,98631.22
2023-03-27T02:31:45.835Z,98633.50
2023-03-27T02:36:50.787Z,98642.28
2023-03-27T02:42:11.896Z,98646.44
2023-03-27T02:47:23.793Z,98654.22
2023-03-27T02:52:39.568Z,98660.44
2023-03-27T02:57:51.879Z,98665.25
2023-03-27T03:03:05.992Z,98680.09
2023-03-27T03:08:10.257Z,98680.72
2023-03-27T03:13:11.902Z,98695.56
2023-03-27T03:18:14.124Z,98699.91
2023-03-27T03:23:15.663Z,98707.94
2023-03-27T03:28:18.190Z,98714.28
2023-03-27T03:33:20.375Z,98725.81
2023-03-27T03:38:24.852Z,98745.44
2023-03-27T03:43:28.233Z,98768.63
2023-03-27T03:48:29.742Z,98771.72
2023-03-27T03:53:31.197Z,98774.69
2023-03-27T03:58:34.563Z,98777.88
2023-03-27T04:03:36.831Z,98786.88
2023-03-27T04:08:38.407Z,98792.03
2023-03-27T04:13:39.813Z,98801.53
2023-03-27T04:18:42.510Z,98810.84
2023-03-27T04:23:45.903Z,98826.09
2023-03-27T04:28:51.687Z,98841.22
2023-03-27T04:33:53.117Z,98851.13
2023-03-27T04:38:54.625Z,98866.69
2023-03-27T04:43:56.096Z,98870.16
2023-03-27T04:48:57.497Z,98875.38
2023-03-27T04:53:58.938Z,98879.16
2023-03-27T04:59:03.641Z,98891.81
2023-03-27T05:04:05.230Z,98898.44
2023-03-27T05:09:06.681Z,98919.59
2023-03-27T05:14:08.190Z,98940.44
2023-03-27T05:19:09.907Z,98946.41
2023-03-27T05:24:11.346Z,98950.03
2023-03-27T05:29:14.021Z,98957.00
2023-03-27T05:34:15.429Z,98963.34
2023-03-27T05:39:16.887Z,98992.88
2023-03-27T05:44:18.295Z,99011.63
2023-03-27T05:49:20.215Z,99035.59
2023-03-27T05:54:21.794Z,99046.91
2023-03-27T05:59:23.660Z,99063.16
2023-03-27T06:04:25.240Z,99075.75
2023-03-27T06:09:26.687Z,99097.19
2023-03-27T06:14:28.102Z,99096.13
2023-03-27T06:19:29.542Z,99122.69
2023-03-27T06:24:30.964Z,99135.81
2023-03-27T06:29:33.370Z,99138.84
2023-03-27T06:34:34.804Z,99157.06
2023-03-27T06:39:36.308Z,99170.84
2023-03-27T06:44:37.760Z,99171.53
2023-03-27T06:49:39.196Z,99178.03
2023-03-27T06:54:40.609Z,99190.72
2023-03-27T06:59:42.052Z,99208.00
2023-03-27T07:04:54.158Z,99208.72
2023-03-27T07:09:59.936Z,99214.16
2023-03-27T07:15:01.469Z,99217.97
2023-03-27T07:20:05.761Z,99232.28
2023-03-27T07:25:07.734Z,99234.50
2023-03-27T07:30:12.260Z,99241.19
2023-03-27T07:35:14.925Z,99245.75
2023-03-27T07:40:29.525Z,99254.44
2023-03-27T07:45:38.924Z,99265.75
2023-03-27T07:50:40.409Z,99282.44
2023-03-27T07:55:42.182Z,99264.75
2023-03-27T08:00:43.650Z,99278.47
2023-03-27T08:05:52.234Z,99281.41
2023-03-27T08:10:54.412Z,99292.75
2023-03-27T08:16:20.107Z,99299.91
2023-03-27T08:21:21.701Z,99301.91
2023-03-27T08:26:23.158Z,99305.53
2023-03-27T08:31:25.701Z,99327.06
2023-03-27T08:36:27.762Z,99324.13
2023-03-27T08:41:38.439Z,99321.75
2023-03-27T08:46:57.915Z,99325.03
2023-03-27T08:52:03.956Z,99330.19
2023-03-27T08:57:20.204Z,99325.13
2023-03-27T09:02:39.514Z,99330.41
2023-03-27T09:07:43.793Z,99354.81
2023-03-27T09:13:04.426Z,99358.56
2023-03-27T09:18:19.919Z,99364.22
2023-03-27T09:23:38.159Z,99371.06
2023-03-27T09:28:50.903Z,99378.31
2023-03-27T09:33:52.568Z,99385.78
2023-03-27T09:38:58.591Z,99404.19
2023-03-27T09:44:25.192Z,99420.25
2023-03-27T09:49:27.821Z,99417.53
2023-03-27T09:54:29.301Z,99424.19
2023-03-27T09:59:33.617Z,99431.78
2023-03-27T10:04:35.772Z,99443.03
2023-03-27T10:09:39.233Z,99454.75
2023-03-27T10:14:44.029Z,99463.81
2023-03-27T10:19:45.500Z,99469.19
2023-03-27T10:24:47.945Z,99472.72
2023-03-27T10:29:49.382Z,99485.97
2023-03-27T10:34:52.844Z,99485.00
2023-03-27T10:39:56.822Z,99491.63
2023-03-27T10:44:59.218Z,99496.66
2023-03-27T10:50:12.746Z,99497.84
2023-03-27T10:55:24.761Z,99507.31
2023-03-27T11:00:40.980Z,99502.00
2023-03-27T11:05:47.283Z,99513.06
2023-03-27T11:10:50.178Z,99507.75
2023-03-27T11:15:58.026Z,99510.03
2023-03-27T11:21:03.386Z,99517.63
2023-03-27T11:26:06.385Z,99521.75
2023-03-27T11:31:38.964Z,99523.28
2023-03-27T11:36:43.469Z,99532.03
2023-03-27T11:41:51.196Z,99540.66
2023-03-27T11:47:10.740Z,99548.28
2023-03-27T11:52:25.771Z,99549.97
2023-03-27T11:57:27.275Z,99529.91
2023-03-27T12:02:59.069Z,99544.38
2023-03-27T12:08:45.932Z,99549.22
2023-03-27T12:14:18.469Z,99552.09
2023-03-27T12:19:51.283Z,99548.78
2023-03-27T12:25:26.272Z,99566.03
2023-03-27T12:30:42.325Z,99554.34
2023-03-27T12:49:13.662Z,99542.03
2023-03-27T12:54:29.335Z,99575.72
2023-03-27T12:59:35.041Z,99574.19
2023-03-27T13:05:20.384Z,99589.22
2023-03-27T13:11:10.431Z,99592.25
2023-03-27T13:16:35.581Z,99603.31
2023-03-27T13:22:00.960Z,99595.72
2023-03-27T13:27:12.947Z,99594.06
2023-03-27T13:32:37.861Z,99609.53
2023-03-27T13:37:50.721Z,99612.88
2023-03-27T13:43:10.103Z,99601.44
2023-03-27T13:48:35.125Z,99592.91
2023-03-27T13:53:52.410Z,99610.41
2023-03-27T13:59:17.603Z,99601.91
2023-03-27T14:04:44.781Z,99617.03
2023-03-27T14:10:04.870Z,99628.03
2023-03-27T14:15:21.014Z,99638.84
2023-03-27T14:20:25.957Z,99635.09
2023-03-27T14:25:34.269Z,99648.78
2023-03-27T14:30:47.549Z,99650.94
2023-03-27T14:35:55.549Z,99652.25
2023-03-27T14:40:59.747Z,99653.91
2023-03-27T14:46:04.801Z,99654.94
2023-03-27T14:51:14.280Z,99677.09
2023-03-27T14:56:27.829Z,99684.25
2023-03-27T15:01:31.999Z,99697.44
2023-03-27T15:06:36.689Z,99694.31
2023-03-27T15:11:40.116Z,99698.16
2023-03-27T15:16:46.580Z,99695.59
2023-03-27T15:22:01.268Z,99709.13
2023-03-27T15:27:04.674Z,99728.94
2023-03-27T15:32:14.672Z,99731.19
2023-03-27T15:37:19.880Z,99732.66
2023-03-27T15:42:21.272Z,99747.34
2023-03-27T15:47:28.543Z,99742.41
2023-03-27T15:52:32.480Z,99764.78
2023-03-27T15:57:34.124Z,99774.09
2023-03-27T16:02:36.330Z,99770.31
2023-03-27T16:07:43.764Z,99791.22
2023-03-27T16:12:56.447Z,99797.47
2023-03-27T16:18:01.540Z,99805.41
2023-03-27T16:23:04.259Z,99809.03
2023-03-27T16:28:08.344Z,99803.13
2023-03-27T16:33:15.879Z,99821.66
2023-03-27T16:38:18.016Z,99823.56
2023-03-27T16:43:19.474Z,99834.88
2023-03-27T16:48:21.293Z,99848.53
2023-03-27T16:53:22.921Z,99864.72
2023-03-27T16:58:24.394Z,99857.75
2023-03-27T17:03:25.939Z,99869.03
2023-03-27T17:08:30.221Z,99882.13
2023-03-27T17:13:32.226Z,99885.09
2023-03-27T17:18:33.838Z,99893.50
2023-03-27T17:23:36.276Z,99897.91
2023-03-27T17:28:37.707Z,99904.19
2023-03-27T17:33:39.151Z,99918.53
2023-03-27T17:38:41.512Z,99922.75
2023-03-27T17:43:44.404Z,99930.94
2023-03-27T17:48:46.050Z,99932.28
2023-03-27T17:53:47.485Z,99934.66
2023-03-27T17:58:50.094Z,99936.47
2023-03-27T18:03:51.830Z,99949.00
2023-03-27T18:08:53.370Z,99952.66
2023-03-27T18:13:54.836Z,99955.53
2023-03-27T18:18:57.493Z,99963.00
2023-03-27T18:23:59.693Z,99965.56
2023-03-27T18:29:01.350Z,99978.06
2023-03-27T18:34:03.176Z,99976.53
2023-03-27T18:39:06.441Z,99978.53
2023-03-27T18:44:07.854Z,99979.06
2023-03-27T18:49:21.603Z,99980.34
2023-03-27T18:54:26.186Z,99989.25
2023-03-27T18:59:27.600Z,99984.41
2023-03-27T19:04:29.291Z,99983.91
2023-03-27T19:09:40.873Z,99985.44
2023-03-27T19:14:42.997Z,99997.28
2023-03-27T19:19:46.390Z,99994.59
2023-03-27T19:24:48.087Z,100002.97
2023-03-27T19:29:49.707Z,99997.72
2023-03-27T19:34:51.201Z,100009.88
2023-03-27T19:39:52.722Z,100013.75
2023-03-27T19:44:55.554Z,100025.97
2023-03-27T19:49:57.169Z,100015.94
2023-03-27T19:54:58.726Z,100015.06
2023-03-27T20:00:00.312Z,100025.41
2023-03-27T20:05:01.805Z,100022.34
2023-03-27T20:10:04.194Z,100019.75
2023-03-27T20:15:12.218Z,100023.84
2023-03-27T20:20:14.226Z,100024.34
2023-03-27T20:25:15.831Z,100025.97
2023-03-27T20:30:17.344Z,100028.25
2023-03-27T20:35:24.151Z,100027.28
2023-03-27T20:40:26.189Z,100014.97
2023-03-27T20:45:31.253Z,100011.50
2023-03-27T20:50:35.190Z,100007.25
2023-03-27T20:55:43.811Z,100008.91
2023-03-27T21:00:48.842Z,100001.56
2023-03-27T21:05:50.641Z,100014.00
2023-03-27T21:10:53.695Z,100012.13
2023-03-27T21:15:55.372Z,100010.31
2023-03-27T21:20:56.903Z,100010.41
2023-03-27T21:25:58.652Z,100004.88
2023-03-27T21:31:00.691Z,99998.88
2023-03-27T21:36:02.902Z,100003.66
2023-03-27T21:41:05.306Z,99998.41
2023-03-27T21:46:06.978Z,100001.28
2023-03-27T21:51:09.203Z,99995.25
2023-03-27T21:56:10.622Z,100009.75
2023-03-27T22:01:12.091Z,99996.03
2023-03-27T22:06:13.720Z,99990.38
2023-03-27T22:11:15.519Z,99982.09
2023-03-27T22:16:17.670Z,99989.78
2023-03-27T22:21:27.944Z,99975.31
2023-03-27T22:26:32.540Z,99975.97
2023-03-27T22:31:34.454Z,99981.00
2023-03-27T22:36:36.076Z,99983.38
2023-03-27T22:41:37.544Z,99993.81
2023-03-27T22:46:38.999Z,99999.09
2023-03-27T22:51:40.454Z,99991.53
2023-03-27T22:56:41.880Z,99984.34
2023-03-27T23:01:43.374Z,99980.88
2023-03-27T23:06:44.867Z,99979.53
2023-03-27T23:11:47.203Z,99978.88
2023-03-27T23:16:48.676Z,99981.28
2023-03-27T23:21:50.283Z,99978.88
2023-03-27T23:26:51.936Z,99994.06
2023-03-27T23:31:53.477Z,99988.59
2023-03-27T23:36:55.014Z,99975.13
2023-03-27T23:41:56.470Z,99980.19
2023-03-27T23:46:57.893Z,99964.31
2023-03-27T23:51:59.330Z,99982.19
2023-03-27T23:57:00.747Z,99974.44
